createdAt,value
2024-03-30T00:02:07.074Z,1337
2024-03-30T00:07:24.982Z,1343
2024-03-30T00:12:43.118Z,1346
2024-03-30T00:18:01.466Z,1354
2024-03-30T00:23:19.570Z,1377
2024-03-30T00:28:37.698Z,1429
2024-03-30T00:33:56.041Z,1461
2024-03-30T00:39:14.278Z,1476
2024-03-30T00:44:32.401Z,1510
2024-03-30T00:50:00.279Z,1528
2024-03-30T00:55:18.600Z,1552
2024-03-30T01:00:36.943Z,1564
2024-03-30T01:05:55.444Z,1543
2024-03-30T01:11:13.585Z,1519
2024-03-30T01:16:31.519Z,1537
2024-03-30T01:21:53.635Z,1548
2024-03-30T01:27:11.937Z,1550
2024-03-30T01:32:30.061Z,1549
2024-03-30T01:37:48.188Z,1569
2024-03-30T01:43:06.525Z,1556
2024-03-30T01:48:24.857Z,1563
2024-03-30T01:53:44.129Z,1552
2024-03-30T01:59:02.745Z,1552
2024-03-30T02:04:21.044Z,1543
2024-03-30T02:09:39.182Z,1538
2024-03-30T02:14:57.496Z,1543
2024-03-30T02:20:15.816Z,1547
2024-03-30T02:25:34.142Z,1553
2024-03-30T02:30:52.484Z,1530
2024-03-30T02:36:10.600Z,1518
2024-03-30T02:41:28.951Z,1524
2024-03-30T02:46:47.431Z,1528
2024-03-30T02:52:05.965Z,1534
2024-03-30T02:57:23.926Z,1558
2024-03-30T03:02:42.027Z,1556
2024-03-30T03:08:00.582Z,1533
2024-03-30T03:13:19.093Z,1569
2024-03-30T03:18:37.626Z,1545
2024-03-30T03:23:55.797Z,1534
2024-03-30T03:29:13.925Z,1540
2024-03-30T03:34:32.044Z,1551
2024-03-30T03:39:51.018Z,1574
2024-03-30T03:45:09.168Z,1584
2024-03-30T03:50:27.272Z,1566
2024-03-30T03:55:45.790Z,1569
2024-03-30T04:01:04.350Z,1552
2024-03-30T04:06:22.845Z,1554
2024-03-30T04:11:40.959Z,1559
2024-03-30T04:16:59.102Z,1552
2024-03-30T04:22:17.448Z,1560
2024-03-30T04:27:35.749Z,1558
2024-03-30T04:32:53.938Z,1578
2024-03-30T04:38:12.438Z,1594
2024-03-30T04:43:30.558Z,1580
2024-03-30T04:48:49.105Z,1568
2024-03-30T04:54:07.264Z,1595
2024-03-30T04:59:25.365Z,1605
2024-03-30T05:04:43.540Z,1587
2024-03-30T05:10:01.658Z,1582
2024-03-30T05:15:19.969Z,1581
2024-03-30T05:20:38.349Z,1589
2024-03-30T05:25:56.377Z,1602
2024-03-30T05:31:14.888Z,1595
2024-03-30T05:36:33.422Z,1625
2024-03-30T05:41:51.861Z,1616
2024-03-30T05:47:11.903Z,1604
2024-03-30T05:52:33.930Z,1611
2024-03-30T05:57:52.235Z,1617
2024-03-30T06:03:10.358Z,1613
2024-03-30T06:08:29.437Z,1619
2024-03-30T06:13:47.827Z,1623
2024-03-30T06:19:06.540Z,1631
2024-03-30T06:24:24.859Z,1617
2024-03-30T06:29:43.019Z,1645
2024-03-30T06:35:01.128Z,1640
2024-03-30T06:40:19.442Z,1648
2024-03-30T06:45:37.575Z,1617
2024-03-30T06:50:55.864Z,1588
2024-03-30T06:55:58.654Z,1577
2024-03-30T07:01:16.781Z,1551
2024-03-30T07:06:34.884Z,1527
2024-03-30T07:11:52.929Z,1521
2024-03-30T07:17:12.171Z,1474
2024-03-30T07:22:33.280Z,1473
2024-03-30T07:27:51.783Z,1461
2024-03-30T07:33:11.330Z,1478
2024-03-30T07:38:33.015Z,1481
2024-03-30T07:43:51.508Z,1474
2024-03-30T07:49:12.973Z,1403
2024-03-30T07:54:30.931Z,1313
2024-03-30T07:59:49.159Z,1255
2024-03-30T08:05:07.574Z,1219
2024-03-30T08:10:26.006Z,1080
2024-03-30T08:15:44.128Z,1021
2024-03-30T08:21:02.766Z,1013
2024-03-30T08:26:20.891Z,1080
2024-03-30T08:31:39.081Z,1080
2024-03-30T08:36:57.567Z,1028
2024-03-30T08:42:18.196Z,1003
2024-03-30T08:47:44.271Z,968
2024-03-30T08:53:02.787Z,975
2024-03-30T08:58:21.155Z,956
2024-03-30T09:03:39.545Z,921
2024-03-30T09:08:57.695Z,876
2024-03-30T09:14:18.333Z,838
2024-03-30T09:19:36.868Z,790
2024-03-30T09:24:57.679Z,801
2024-03-30T09:30:16.179Z,776
2024-03-30T09:35:34.364Z,731
2024-03-30T09:40:52.483Z,719
2024-03-30T09:46:11.270Z,728
2024-03-30T09:51:29.643Z,709
2024-03-30T09:56:47.975Z,704
2024-03-30T10:02:06.571Z,712
2024-03-30T10:07:24.480Z,725
2024-03-30T10:12:42.824Z,753
2024-03-30T10:18:01.395Z,774
2024-03-30T10:23:19.717Z,773
2024-03-30T10:28:37.826Z,812
2024-03-30T10:33:56.143Z,803
2024-03-30T10:39:14.481Z,823
2024-03-30T10:44:32.576Z,860
2024-03-30T10:49:50.891Z,873
2024-03-30T10:55:09.052Z,928
2024-03-30T11:00:27.372Z,935
2024-03-30T11:05:45.975Z,1002
2024-03-30T11:11:04.443Z,1038
2024-03-30T11:16:22.688Z,1045
2024-03-30T11:21:41.122Z,1057
2024-03-30T11:26:59.262Z,1054
2024-03-30T11:32:17.408Z,1042
2024-03-30T11:37:35.325Z,1032
2024-03-30T11:42:53.480Z,1033
2024-03-30T11:48:11.439Z,1028
2024-03-30T11:53:29.798Z,1025
2024-03-30T11:58:48.116Z,983
2024-03-30T12:04:06.250Z,961
2024-03-30T12:09:24.562Z,910
2024-03-30T12:14:43.118Z,869
2024-03-30T12:20:01.638Z,841
2024-03-30T12:25:19.996Z,826
2024-03-30T12:30:38.547Z,803
2024-03-30T12:35:57.046Z,791
2024-03-30T12:41:14.985Z,780
2024-03-30T12:46:33.099Z,778
2024-03-30T12:51:51.598Z,780
2024-03-30T12:57:09.720Z,781
2024-03-30T13:02:30.646Z,785
2024-03-30T13:07:49.986Z,785
2024-03-30T13:13:10.120Z,788
2024-03-30T13:18:28.644Z,802
2024-03-30T13:23:47.130Z,836
2024-03-30T13:29:05.276Z,858
2024-03-30T13:34:23.749Z,859
2024-03-30T13:39:41.876Z,856
2024-03-30T13:45:00.241Z,848
2024-03-30T13:50:18.381Z,852
2024-03-30T13:55:36.816Z,851
2024-03-30T14:00:55.148Z,848
2024-03-30T14:06:13.453Z,869
2024-03-30T14:11:31.581Z,977
2024-03-30T14:16:49.689Z,1042
2024-03-30T14:22:08.228Z,1095
2024-03-30T14:27:26.551Z,1108
2024-03-30T14:32:44.877Z,1116
2024-03-30T14:38:03.380Z,1072
2024-03-30T14:43:21.733Z,1047
2024-03-30T14:48:40.238Z,1030
2024-03-30T14:53:58.575Z,1023
2024-03-30T14:59:16.495Z,1018
2024-03-30T15:04:34.810Z,1017
2024-03-30T15:09:53.327Z,1021
2024-03-30T15:15:11.625Z,1026
2024-03-30T15:20:29.611Z,1049
2024-03-30T15:25:48.225Z,1103
2024-03-30T15:31:06.503Z,1126
2024-03-30T15:36:24.653Z,1155
2024-03-30T15:41:42.966Z,1171
2024-03-30T15:47:01.477Z,1177
2024-03-30T15:52:19.819Z,1202
2024-03-30T15:57:38.120Z,1201
2024-03-30T16:02:56.419Z,1220
2024-03-30T16:08:14.787Z,1241
2024-03-30T16:13:33.108Z,1260
2024-03-30T16:18:51.006Z,1300
2024-03-30T16:24:09.323Z,1321
2024-03-30T16:29:27.671Z,1330
2024-03-30T16:34:45.828Z,1357
2024-03-30T16:40:04.344Z,1386
2024-03-30T16:45:22.481Z,1401
2024-03-30T16:50:40.672Z,1388
2024-03-30T16:55:58.999Z,1382
2024-03-30T17:01:17.227Z,1343
2024-03-30T17:06:35.357Z,1332
2024-03-30T17:11:54.687Z,1326
2024-03-30T17:17:13.033Z,1323
2024-03-30T17:22:31.573Z,1320
2024-03-30T17:27:50.188Z,1326
2024-03-30T17:33:14.694Z,1334
2024-03-30T17:38:32.809Z,1338
2024-03-30T17:43:51.163Z,1361
2024-03-30T17:49:09.747Z,1362
2024-03-30T17:54:28.078Z,1342
2024-03-30T17:59:46.600Z,1326
2024-03-30T18:05:04.909Z,1306
2024-03-30T18:10:24.311Z,1295
2024-03-30T18:15:42.783Z,1281
2024-03-30T18:21:00.986Z,1273
2024-03-30T18:26:19.263Z,1269
2024-03-30T18:31:37.402Z,1260
2024-03-30T18:36:55.775Z,1255
2024-03-30T18:42:14.027Z,1261
2024-03-30T18:47:32.138Z,1243
2024-03-30T18:52:51.340Z,1229
2024-03-30T18:58:09.850Z,1228
2024-03-30T19:03:27.972Z,1218
2024-03-30T19:08:46.491Z,1216
2024-03-30T19:14:04.616Z,1204
2024-03-30T19:19:22.967Z,1185
2024-03-30T19:24:41.348Z,1170
2024-03-30T19:29:59.477Z,1164
2024-03-30T19:35:17.803Z,1159
2024-03-30T19:40:35.940Z,1160
2024-03-30T19:45:54.098Z,1166
2024-03-30T19:51:12.132Z,1165
2024-03-30T19:56:31.050Z,1167
2024-03-30T20:01:49.450Z,1170
2024-03-30T20:07:07.369Z,1171
2024-03-30T20:12:25.938Z,1173
2024-03-30T20:17:46.594Z,1168
2024-03-30T20:23:04.707Z,1171
2024-03-30T20:28:23.051Z,1174
2024-03-30T20:33:41.378Z,1190
2024-03-30T20:38:59.319Z,1199
2024-03-30T20:44:17.649Z,1220
2024-03-30T20:49:36.055Z,1219
2024-03-30T20:54:54.226Z,1223
2024-03-30T21:00:12.336Z,1226
2024-03-30T21:05:30.770Z,1238
2024-03-30T21:10:49.071Z,1242
2024-03-30T21:15:51.975Z,1240
2024-03-30T21:21:10.810Z,1242
2024-03-30T21:26:28.716Z,1241
2024-03-30T21:31:47.655Z,1196
2024-03-30T21:37:05.975Z,1189
2024-03-30T21:42:24.490Z,1207
2024-03-30T21:47:42.726Z,1177
2024-03-30T21:53:01.032Z,1206
2024-03-30T21:58:19.545Z,1282
2024-03-30T22:03:37.486Z,1323
2024-03-30T22:08:55.410Z,1327
2024-03-30T22:14:13.531Z,1325
2024-03-30T22:19:31.859Z,1330
2024-03-30T22:24:50.165Z,1344
2024-03-30T22:30:08.495Z,1349
2024-03-30T22:35:26.639Z,1358
2024-03-30T22:40:44.760Z,1364
2024-03-30T22:46:03.099Z,1362
2024-03-30T22:51:21.204Z,1390
2024-03-30T22:56:39.353Z,1387
2024-03-30T23:01:57.266Z,1394
2024-03-30T23:07:15.790Z,1400
2024-03-30T23:12:33.944Z,1395
2024-03-30T23:17:52.262Z,1405
2024-03-30T23:23:10.403Z,1408
2024-03-30T23:28:28.720Z,1418
2024-03-30T23:33:46.881Z,1434
2024-03-30T23:39:05.275Z,1424
2024-03-30T23:44:23.421Z,1416
2024-03-30T23:49:25.895Z,1415
2024-03-30T23:54:44.017Z,1415
